createdAt,value
2018-06-11T00:00:48.502Z,93.2
2018-06-11T00:01:49.171Z,93.4
2018-06-11T00:02:49.842Z,93.5
2018-06-11T00:03:50.551Z,92.9
2018-06-11T00:04:51.222Z,93.1
2018-06-11T00:05:51.946Z,93.2
2018-06-11T00:06:52.616Z,93.6
2018-06-11T00:07:53.325Z,93.3
2018-06-11T00:08:53.997Z,93.2
2018-06-11T00:09:54.672Z,93.5
2018-06-11T00:10:55.379Z,93.6
2018-06-11T00:11:56.049Z,93.2
2018-06-11T00:12:56.721Z,93.4
2018-06-11T00:13:57.393Z,93.3
2018-06-11T00:14:58.064Z,93.2
2018-06-11T00:15:58.734Z,93.5
2018-06-11T00:16:59.405Z,93.4
2018-06-11T00:18:00.075Z,93.5
2018-06-11T00:19:00.744Z,93.2
2018-06-11T00:20:01.421Z,93.7
2018-06-11T00:21:02.089Z,93.7
2018-06-11T00:22:02.763Z,93.6
2018-06-11T00:23:03.491Z,93.7
2018-06-11T00:24:04.139Z,93.3
2018-06-11T00:25:04.809Z,93.5
2018-06-11T00:26:05.485Z,93.8
2018-06-11T00:27:06.152Z,93.9
2018-06-11T00:28:06.826Z,93.9
2018-06-11T00:29:07.533Z,94.3
2018-06-11T00:30:08.210Z,94.1
2018-06-11T00:31:08.878Z,94.1
2018-06-11T00:32:09.549Z,93.9
2018-06-11T00:33:10.220Z,93.9
2018-06-11T00:34:10.890Z,94.1
2018-06-11T00:35:11.562Z,93.9
2018-06-11T00:36:12.234Z,94.2
2018-06-11T00:37:12.904Z,94.0
2018-06-11T00:38:13.578Z,94.3
2018-06-11T00:39:14.248Z,94.1
2018-06-11T00:40:14.918Z,94.3
2018-06-11T00:41:15.589Z,94.9
2018-06-11T00:42:16.258Z,95.1
2018-06-11T00:43:16.930Z,95.0
2018-06-11T00:44:17.602Z,94.4
2018-06-11T00:45:18.314Z,94.8
2018-06-11T00:46:19.024Z,94.3
2018-06-11T00:47:19.692Z,94.7
2018-06-11T00:48:20.364Z,94.4
2018-06-11T00:49:21.035Z,95.1
2018-06-11T00:50:21.745Z,94.9
2018-06-11T00:51:22.415Z,95.2
2018-06-11T00:52:23.127Z,95.0
2018-06-11T00:53:23.834Z,95.1
2018-06-11T00:54:24.503Z,95.0
2018-06-11T00:55:25.174Z,94.8
2018-06-11T00:56:25.843Z,94.9
2018-06-11T00:57:26.516Z,94.8
2018-06-11T00:58:27.190Z,94.9
2018-06-11T00:59:27.897Z,94.5
2018-06-11T01:00:28.569Z,95.1
2018-06-11T01:01:29.241Z,94.6
2018-06-11T01:02:29.912Z,94.4
2018-06-11T01:03:30.584Z,94.5
2018-06-11T01:04:31.256Z,94.3
2018-06-11T01:05:31.927Z,94.6
2018-06-11T01:06:32.600Z,94.7
2018-06-11T01:07:33.269Z,94.7
2018-06-11T01:08:33.940Z,94.7
2018-06-11T01:09:34.614Z,94.7
2018-06-11T01:10:35.280Z,95.1
2018-06-11T01:11:35.951Z,95.1
2018-06-11T01:12:36.622Z,94.9
2018-06-11T01:13:37.294Z,94.7
2018-06-11T01:14:37.966Z,94.8
2018-06-11T01:15:38.639Z,95.0
2018-06-11T01:16:39.308Z,95.0
2018-06-11T01:17:39.980Z,94.7
2018-06-11T01:18:40.652Z,95.2
2018-06-11T01:19:41.323Z,95.1
2018-06-11T01:20:41.994Z,95.5
2018-06-11T01:21:42.667Z,95.9
2018-06-11T01:22:43.374Z,95.7
2018-06-11T01:23:44.045Z,95.7
2018-06-11T01:24:44.715Z,96.0
2018-06-11T01:25:45.384Z,96.2
2018-06-11T01:26:46.056Z,96.6
2018-06-11T01:27:46.728Z,96.5
2018-06-11T01:28:47.402Z,96.3
2018-06-11T01:29:48.073Z,96.1
2018-06-11T01:30:48.742Z,96.3
2018-06-11T01:31:49.412Z,96.5
2018-06-11T01:32:50.082Z,96.8
2018-06-11T01:33:50.754Z,96.7
2018-06-11T01:34:51.425Z,97.0
2018-06-11T01:35:52.096Z,97.1
2018-06-11T01:36:52.766Z,97.0
2018-06-11T01:37:53.434Z,97.0
2018-06-11T01:38:54.103Z,97.0
2018-06-11T01:39:54.774Z,96.8
2018-06-11T01:40:55.444Z,96.8
2018-06-11T01:41:56.114Z,97.3
2018-06-11T01:42:56.786Z,97.1
2018-06-11T01:43:57.458Z,97.2
2018-06-11T01:44:58.132Z,97.1
2018-06-11T01:45:58.799Z,97.3
2018-06-11T01:46:59.470Z,97.4
2018-06-11T01:48:00.142Z,97.2
2018-06-11T01:49:00.812Z,97.4
2018-06-11T01:50:01.487Z,97.8
2018-06-11T01:51:02.191Z,97.1
2018-06-11T01:52:02.862Z,97.6
2018-06-11T01:53:03.532Z,97.7
2018-06-11T01:54:04.203Z,97.3
2018-06-11T01:55:04.877Z,97.2
2018-06-11T01:56:05.547Z,97.0
2018-06-11T01:57:06.220Z,96.3
2018-06-11T01:58:06.892Z,96.4
2018-06-11T01:59:07.564Z,96.5
2018-06-11T02:00:08.239Z,96.0
2018-06-11T02:01:08.907Z,95.9
2018-06-11T02:02:09.580Z,95.7
2018-06-11T02:03:10.252Z,95.8
2018-06-11T02:04:10.923Z,95.1
2018-06-11T02:05:11.596Z,94.5
2018-06-11T02:06:12.269Z,94.5
2018-06-11T02:07:12.943Z,94.3
2018-06-11T02:08:13.613Z,94.4
2018-06-11T02:09:14.286Z,94.6
2018-06-11T02:10:14.958Z,94.4
2018-06-11T02:11:15.629Z,94.4
2018-06-11T02:12:16.301Z,94.3
2018-06-11T02:13:16.972Z,94.4
2018-06-11T02:14:17.643Z,94.2
2018-06-11T02:15:18.315Z,94.1
2018-06-11T02:16:18.988Z,94.1
2018-06-11T02:17:19.662Z,93.4
2018-06-11T02:18:20.334Z,93.4
2018-06-11T02:19:21.005Z,93.1
2018-06-11T02:20:21.678Z,93.3
2018-06-11T02:21:22.349Z,92.8
2018-06-11T02:22:23.022Z,92.5
2018-06-11T02:23:23.692Z,92.1
2018-06-11T02:24:24.364Z,92.8
2018-06-11T02:25:25.036Z,92.0
2018-06-11T02:26:25.707Z,92.1
2018-06-11T02:27:26.380Z,92.1
2018-06-11T02:28:27.053Z,92.1
2018-06-11T02:29:27.723Z,91.6
2018-06-11T02:30:28.396Z,91.2
2018-06-11T02:31:29.068Z,91.2
2018-06-11T02:32:29.741Z,91.1
2018-06-11T02:33:30.413Z,90.5
2018-06-11T02:34:31.084Z,91.0
2018-06-11T02:35:31.756Z,90.5
2018-06-11T02:36:32.429Z,90.7
2018-06-11T02:37:33.103Z,90.5
2018-06-11T02:38:33.777Z,90.7
2018-06-11T02:39:34.488Z,90.7
2018-06-11T02:40:35.165Z,90.4
2018-06-11T02:41:35.836Z,90.2
2018-06-11T02:42:36.509Z,90.2
2018-06-11T02:43:37.184Z,90.5
2018-06-11T02:44:37.896Z,90.1
2018-06-11T02:45:38.568Z,90.3
2018-06-11T02:46:39.243Z,90.3
2018-06-11T02:47:39.967Z,90.4
2018-06-11T02:48:40.641Z,90.8
2018-06-11T02:49:41.312Z,90.3
2018-06-11T02:50:41.985Z,90.6
2018-06-11T02:51:42.658Z,90.7
2018-06-11T02:52:43.334Z,90.5
2018-06-11T02:53:44.007Z,90.5
2018-06-11T02:54:44.679Z,90.2
2018-06-11T02:55:45.352Z,90.7
2018-06-11T02:56:46.027Z,90.7
2018-06-11T02:57:46.702Z,90.5
2018-06-11T02:58:47.372Z,90.9
2018-06-11T02:59:48.052Z,90.8
2018-06-11T03:00:48.720Z,90.9
2018-06-11T03:01:49.396Z,90.7
2018-06-11T03:02:50.068Z,90.9
2018-06-11T03:03:50.744Z,90.9
2018-06-11T03:04:51.418Z,90.9
2018-06-11T03:05:52.091Z,91.1
2018-06-11T03:06:52.765Z,90.8
2018-06-11T03:07:53.440Z,91.0
2018-06-11T03:08:54.118Z,90.8
2018-06-11T03:09:54.789Z,91.0
2018-06-11T03:10:55.468Z,91.1
2018-06-11T03:11:56.178Z,90.9
2018-06-11T03:12:56.851Z,90.8
2018-06-11T03:13:57.526Z,91.0
2018-06-11T03:14:58.201Z,91.1
2018-06-11T03:15:58.876Z,91.3
2018-06-11T03:16:59.550Z,91.1
2018-06-11T03:18:00.225Z,91.5
2018-06-11T03:19:00.939Z,91.4
2018-06-11T03:20:01.616Z,90.9
2018-06-11T03:21:02.326Z,91.0
2018-06-11T03:22:02.999Z,90.9
2018-06-11T03:23:03.675Z,91.0
2018-06-11T03:24:04.351Z,90.9
2018-06-11T03:25:05.022Z,90.8
2018-06-11T03:26:05.696Z,91.0
2018-06-11T03:27:06.370Z,90.8
2018-06-11T03:28:07.044Z,90.8
2018-06-11T03:29:07.718Z,90.9
2018-06-11T03:30:08.400Z,91.0
2018-06-11T03:31:09.109Z,90.6
2018-06-11T03:32:09.786Z,91.2
2018-06-11T03:33:10.458Z,91.4
2018-06-11T03:34:11.132Z,91.6
2018-06-11T03:35:11.807Z,90.9
2018-06-11T03:36:12.481Z,90.7
2018-06-11T03:37:13.156Z,91.1
2018-06-11T03:38:13.829Z,90.7
2018-06-11T03:39:14.504Z,90.8
2018-06-11T03:40:15.179Z,90.5
2018-06-11T03:41:15.854Z,90.3
2018-06-11T03:42:16.570Z,90.3
2018-06-11T03:43:17.248Z,90.8
2018-06-11T03:44:17.922Z,90.8
2018-06-11T03:45:18.598Z,90.7
2018-06-11T03:46:19.274Z,90.7
2018-06-11T03:47:19.948Z,90.5
2018-06-11T03:48:20.625Z,90.6
2018-06-11T03:49:21.300Z,90.8
2018-06-11T03:50:21.977Z,91.3
2018-06-11T03:51:22.692Z,91.3
2018-06-11T03:52:23.366Z,91.2
2018-06-11T03:53:24.081Z,92.1
2018-06-11T03:54:24.758Z,91.5
2018-06-11T03:55:25.434Z,91.5
2018-06-11T03:56:26.149Z,91.5
2018-06-11T03:57:26.824Z,91.5
2018-06-11T03:58:27.499Z,91.0
2018-06-11T03:59:28.173Z,90.6
2018-06-11T04:00:28.851Z,91.1
2018-06-11T04:01:29.526Z,90.8
2018-06-11T04:02:30.202Z,90.6
2018-06-11T04:03:30.878Z,90.2
2018-06-11T04:04:31.553Z,90.7
2018-06-11T04:05:32.229Z,90.8
2018-06-11T04:06:32.905Z,90.7
2018-06-11T04:07:33.582Z,90.9
2018-06-11T04:08:34.258Z,90.8
2018-06-11T04:09:34.932Z,90.9
2018-06-11T04:10:35.607Z,90.7
2018-06-11T04:11:36.286Z,90.6
2018-06-11T04:12:36.960Z,90.8
2018-06-11T04:13:37.635Z,91.0
2018-06-11T04:14:38.313Z,91.0
2018-06-11T04:15:38.987Z,90.6
2018-06-11T04:16:39.701Z,90.6
2018-06-11T04:17:40.378Z,90.8
2018-06-11T04:18:41.059Z,90.9
2018-06-11T04:19:41.731Z,90.8
2018-06-11T04:20:42.405Z,91.0
2018-06-11T04:21:43.080Z,91.0
2018-06-11T04:22:43.758Z,90.6
2018-06-11T04:23:44.434Z,90.7
2018-06-11T04:24:45.156Z,90.7
2018-06-11T04:25:45.784Z,90.7
2018-06-11T04:26:46.459Z,90.2
2018-06-11T04:27:47.134Z,90.8
2018-06-11T04:28:47.811Z,90.8
2018-06-11T04:29:48.487Z,90.5
2018-06-11T04:30:49.165Z,90.3
2018-06-11T04:31:49.878Z,90.1
2018-06-11T04:32:50.553Z,90.1
2018-06-11T04:33:51.229Z,90.0
2018-06-11T04:34:51.906Z,89.9
2018-06-11T04:35:52.581Z,89.5
2018-06-11T04:36:53.258Z,90.2
2018-06-11T04:37:53.933Z,89.7
2018-06-11T04:38:54.608Z,89.3
2018-06-11T04:39:55.288Z,89.9
2018-06-11T04:40:55.961Z,89.9
2018-06-11T04:41:56.639Z,90.1
2018-06-11T04:42:57.314Z,90.3
2018-06-11T04:43:57.992Z,90.1
2018-06-11T04:44:58.703Z,90.0
2018-06-11T04:45:59.381Z,90.7
2018-06-11T04:47:00.057Z,90.0
2018-06-11T04:48:00.737Z,90.9
2018-06-11T04:49:01.409Z,90.5
2018-06-11T04:50:02.084Z,90.4
2018-06-11T04:51:02.761Z,91.1
2018-06-11T04:52:03.436Z,90.6
2018-06-11T04:53:04.112Z,90.8
2018-06-11T04:54:04.788Z,91.0
2018-06-11T04:55:05.484Z,90.8
2018-06-11T04:56:06.173Z,91.1
2018-06-11T04:57:06.849Z,90.7
2018-06-11T04:58:07.526Z,90.9
2018-06-11T04:59:08.200Z,90.8
2018-06-11T05:00:08.918Z,91.0
2018-06-11T05:01:09.594Z,90.8
2018-06-11T05:02:10.268Z,90.8
2018-06-11T05:03:10.944Z,90.8
2018-06-11T05:04:11.621Z,91.5
2018-06-11T05:05:12.296Z,90.8
2018-06-11T05:06:59.375Z,90.9
2018-06-11T05:08:00.080Z,90.7
2018-06-11T05:09:00.726Z,90.7
2018-06-11T05:10:01.481Z,90.3
2018-06-11T05:11:02.132Z,90.4
2018-06-11T05:12:02.813Z,90.9
2018-06-11T05:13:03.485Z,90.5
2018-06-11T05:14:04.163Z,90.4
2018-06-11T05:15:04.843Z,90.3
2018-06-11T05:16:05.517Z,89.8
2018-06-11T05:17:06.193Z,89.8
2018-06-11T05:18:06.869Z,89.3
2018-06-11T05:19:07.548Z,89.2
2018-06-11T05:20:08.248Z,89.6
2018-06-11T05:21:08.940Z,89.5
2018-06-11T05:22:09.616Z,89.9
2018-06-11T05:23:10.291Z,89.7
2018-06-11T05:24:10.968Z,89.6
2018-06-11T05:25:11.644Z,89.9
2018-06-11T05:26:12.318Z,89.7
2018-06-11T05:27:12.995Z,89.8
2018-06-11T05:28:13.710Z,89.8
2018-06-11T05:29:14.387Z,89.7
2018-06-11T05:30:15.065Z,89.2
2018-06-11T05:31:15.741Z,89.5
2018-06-11T05:32:16.416Z,89.5
2018-06-11T05:33:17.093Z,88.8
2018-06-11T05:34:17.769Z,89.4
2018-06-11T05:35:18.446Z,89.3
2018-06-11T05:36:19.121Z,89.3
2018-06-11T05:37:19.797Z,89.5
2018-06-11T05:38:20.471Z,89.7
2018-06-11T05:39:21.149Z,89.3
2018-06-11T05:40:21.868Z,89.6
2018-06-11T05:41:22.577Z,89.0
2018-06-11T05:42:23.253Z,89.3
2018-06-11T05:43:23.929Z,89.3
2018-06-11T05:44:24.604Z,89.3
2018-06-11T05:45:25.282Z,89.0
2018-06-11T05:46:25.955Z,89.0
2018-06-11T05:47:26.632Z,89.6
2018-06-11T05:48:27.310Z,89.2
2018-06-11T05:49:27.992Z,89.2
2018-06-11T05:50:28.661Z,89.4
2018-06-11T05:51:29.337Z,89.0
2018-06-11T05:52:30.012Z,89.1
2018-06-11T05:53:30.740Z,88.5
2018-06-11T05:54:31.365Z,88.9
2018-06-11T05:55:32.043Z,88.7
2018-06-11T05:56:32.718Z,88.9
2018-06-11T05:57:33.394Z,89.0
2018-06-11T05:58:34.072Z,88.9
2018-06-11T05:59:34.747Z,89.0
2018-06-11T06:00:35.423Z,88.8
2018-06-11T06:01:36.100Z,89.2
2018-06-11T06:02:36.784Z,89.0
2018-06-11T06:03:37.492Z,89.1
2018-06-11T06:04:38.169Z,89.6
2018-06-11T06:05:38.847Z,88.6
2018-06-11T06:06:39.520Z,89.4
2018-06-11T06:07:40.195Z,88.6
2018-06-11T06:08:40.912Z,89.4
2018-06-11T06:09:41.549Z,88.9
2018-06-11T06:10:42.225Z,89.0
2018-06-11T06:11:42.906Z,89.3
2018-06-11T06:12:43.618Z,89.3
2018-06-11T06:13:44.292Z,89.5
2018-06-11T06:14:44.969Z,89.1
2018-06-11T06:15:45.646Z,90.0
2018-06-11T06:16:46.323Z,90.0
2018-06-11T06:17:46.999Z,90.1
2018-06-11T06:18:47.674Z,90.1
2018-06-11T06:19:48.351Z,90.3
2018-06-11T06:20:49.029Z,90.7
2018-06-11T06:21:49.706Z,90.7
2018-06-11T06:22:50.383Z,90.5
2018-06-11T06:23:51.058Z,90.7
2018-06-11T06:24:51.738Z,90.7
2018-06-11T06:25:52.412Z,90.8
2018-06-11T06:26:53.117Z,90.9
2018-06-11T06:27:53.842Z,91.1
2018-06-11T06:28:54.523Z,91.0
2018-06-11T06:29:55.202Z,90.4
2018-06-11T06:30:55.880Z,90.8
2018-06-11T06:31:56.556Z,90.5
2018-06-11T06:32:57.234Z,90.6
2018-06-11T06:33:57.911Z,90.4
2018-06-11T06:34:58.588Z,90.7
2018-06-11T06:35:59.267Z,90.8
2018-06-11T06:36:59.943Z,90.2
2018-06-11T06:38:00.620Z,90.8
2018-06-11T06:39:01.297Z,90.6
2018-06-11T06:40:01.973Z,90.6
2018-06-11T06:41:02.652Z,90.9
2018-06-11T06:42:03.329Z,90.4
2018-06-11T06:43:04.008Z,90.2
2018-06-11T06:44:04.681Z,90.9
2018-06-11T06:45:05.358Z,90.6
2018-06-11T06:46:06.037Z,90.9
2018-06-11T06:47:06.713Z,90.8
2018-06-11T06:48:07.391Z,90.1
2018-06-11T06:49:08.070Z,90.2
2018-06-11T06:50:08.745Z,90.2
2018-06-11T06:51:09.463Z,89.7
2018-06-11T06:52:10.140Z,90.2
2018-06-11T06:53:10.817Z,90.4
2018-06-11T06:54:11.495Z,91.0
2018-06-11T06:55:12.172Z,90.5
2018-06-11T06:56:12.852Z,90.9
2018-06-11T06:57:13.527Z,90.9
2018-06-11T06:58:14.205Z,90.9
2018-06-11T06:59:14.880Z,90.6
2018-06-11T07:00:15.558Z,90.8
2018-06-11T07:01:16.236Z,90.9
2018-06-11T07:02:16.913Z,90.4
2018-06-11T07:03:17.591Z,89.5
2018-06-11T07:04:18.267Z,89.8
2018-06-11T07:05:18.943Z,90.2
2018-06-11T07:06:19.623Z,90.1
2018-06-11T07:07:20.303Z,90.1
2018-06-11T07:08:20.981Z,89.5
2018-06-11T07:09:21.661Z,89.5
2018-06-11T07:10:22.336Z,89.9
2018-06-11T07:11:23.018Z,89.6
2018-06-11T07:12:23.693Z,90.1
2018-06-11T07:13:24.370Z,89.5
2018-06-11T07:14:25.074Z,90.1
2018-06-11T07:15:25.724Z,89.7
2018-06-11T07:16:26.400Z,89.8
2018-06-11T07:17:27.082Z,90.0
2018-06-11T07:18:27.755Z,90.2
2018-06-11T07:19:28.432Z,90.9
2018-06-11T07:20:29.113Z,90.2
2018-06-11T07:21:29.786Z,90.4
2018-06-11T07:22:30.465Z,90.6
2018-06-11T07:23:31.144Z,91.1
2018-06-11T07:24:31.823Z,91.1
2018-06-11T07:25:32.500Z,91.2
2018-06-11T07:26:33.177Z,90.8
2018-06-11T07:27:33.854Z,91.3
2018-06-11T07:28:34.532Z,92.4
2018-06-11T07:29:35.215Z,92.8
2018-06-11T07:30:35.890Z,92.7
2018-06-11T07:31:36.567Z,93.7
2018-06-11T07:32:37.264Z,94.2
2018-06-11T07:33:37.927Z,93.7
2018-06-11T07:34:38.604Z,93.9
2018-06-11T07:35:39.281Z,94.0
2018-06-11T07:36:39.959Z,94.3
2018-06-11T07:37:40.676Z,94.2
2018-06-11T07:38:41.355Z,94.3
2018-06-11T07:39:42.036Z,94.1
2018-06-11T07:40:42.755Z,94.6
2018-06-11T07:41:43.442Z,94.7
2018-06-11T07:42:44.115Z,94.5
2018-06-11T07:43:44.795Z,94.3
2018-06-11T07:44:45.484Z,95.0
2018-06-11T07:45:46.158Z,94.8
2018-06-11T07:46:46.834Z,94.9
2018-06-11T07:47:47.549Z,94.9
2018-06-11T07:48:48.228Z,94.9
2018-06-11T07:49:48.946Z,96.0
2018-06-11T07:50:49.627Z,95.8
2018-06-11T07:51:50.360Z,95.6
2018-06-11T07:52:51.036Z,96.2
2018-06-11T07:53:51.752Z,95.7
2018-06-11T07:54:52.429Z,96.0
2018-06-11T07:55:53.110Z,96.2
2018-06-11T07:56:53.838Z,96.1
2018-06-11T07:57:54.517Z,96.4
2018-06-11T07:58:55.247Z,96.6
2018-06-11T07:59:55.951Z,96.4
2018-06-11T08:00:56.605Z,96.3
2018-06-11T08:01:57.347Z,97.1
2018-06-11T08:02:58.032Z,97.3
2018-06-11T08:03:58.713Z,97.3
2018-06-11T08:04:59.398Z,96.9
2018-06-11T08:06:00.069Z,97.1
2018-06-11T08:07:00.804Z,96.6
2018-06-11T08:08:01.487Z,96.6
2018-06-11T08:09:02.161Z,97.0
2018-06-11T08:10:02.848Z,97.6
2018-06-11T08:11:03.520Z,97.1
2018-06-11T08:12:04.203Z,96.0
2018-06-11T08:13:04.877Z,95.9
2018-06-11T08:14:05.620Z,96.4
2018-06-11T08:15:06.300Z,96.2
2018-06-11T08:16:06.970Z,96.3
2018-06-11T08:17:07.656Z,97.2
2018-06-11T08:18:08.328Z,96.9
2018-06-11T08:19:09.010Z,96.9
2018-06-11T08:20:09.685Z,96.9
2018-06-11T08:21:10.369Z,97.1
2018-06-11T08:22:11.105Z,96.0
2018-06-11T08:23:11.780Z,95.6
2018-06-11T08:24:12.455Z,95.7
2018-06-11T08:25:13.141Z,95.6
2018-06-11T08:26:13.821Z,96.3
2018-06-11T08:27:14.501Z,96.1
2018-06-11T08:28:15.185Z,95.9
2018-06-11T08:29:15.860Z,94.5
2018-06-11T08:30:16.541Z,94.5
2018-06-11T08:31:17.218Z,94.9
2018-06-11T08:32:17.947Z,94.1
2018-06-11T08:33:18.618Z,94.3
2018-06-11T08:34:19.296Z,94.6
2018-06-11T08:35:19.986Z,94.0
2018-06-11T08:36:20.660Z,94.3
2018-06-11T08:37:21.339Z,94.5
2018-06-11T08:38:22.022Z,93.8
2018-06-11T08:39:22.699Z,93.3
2018-06-11T08:40:23.375Z,93.4
2018-06-11T08:41:24.092Z,94.3
2018-06-11T08:42:24.769Z,94.0
2018-06-11T08:43:25.449Z,94.0
2018-06-11T08:44:26.132Z,94.5
2018-06-11T08:45:26.819Z,94.0
2018-06-11T08:46:27.533Z,94.1
2018-06-11T08:47:28.211Z,94.0
2018-06-11T08:48:28.890Z,93.5
2018-06-11T08:49:29.568Z,93.1
2018-06-11T08:50:30.249Z,93.1
2018-06-11T08:51:30.927Z,93.0
2018-06-11T08:52:31.612Z,92.9
2018-06-11T08:53:32.288Z,92.7
2018-06-11T08:54:32.970Z,92.0
2018-06-11T08:55:33.660Z,90.6
2018-06-11T08:56:34.331Z,91.0
2018-06-11T08:57:35.016Z,90.3
2018-06-11T08:58:35.691Z,90.8
2018-06-11T08:59:36.373Z,89.8
2018-06-11T09:00:37.051Z,89.6
2018-06-11T09:01:37.731Z,88.2
2018-06-11T09:02:38.419Z,88.0
2018-06-11T09:03:39.102Z,88.0
2018-06-11T09:04:39.774Z,88.0
2018-06-11T09:05:40.459Z,86.8
2018-06-11T09:06:41.145Z,87.1
2018-06-11T09:07:41.912Z,85.0
2018-06-11T09:08:42.593Z,85.9
2018-06-11T09:09:43.308Z,85.6
2018-06-11T09:10:44.010Z,85.0
2018-06-11T09:11:44.707Z,84.9
2018-06-11T09:12:45.385Z,86.0
2018-06-11T09:13:46.064Z,86.4
2018-06-11T09:14:46.742Z,86.0
2018-06-11T09:15:47.422Z,86.4
2018-06-11T09:16:48.114Z,86.5
2018-06-11T09:17:48.787Z,86.3
2018-06-11T09:18:49.468Z,86.9
2018-06-11T09:19:50.150Z,86.9
2018-06-11T09:20:50.836Z,86.5
2018-06-11T09:21:51.521Z,86.4
2018-06-11T09:22:52.194Z,86.4
2018-06-11T09:23:52.874Z,86.5
2018-06-11T09:24:53.552Z,85.3
2018-06-11T09:25:54.235Z,84.9
2018-06-11T09:26:54.913Z,85.2
2018-06-11T09:27:55.596Z,84.9
2018-06-11T09:28:56.282Z,85.2
2018-06-11T09:29:56.958Z,84.9
2018-06-11T09:30:57.695Z,84.7
2018-06-11T09:31:58.322Z,83.2
2018-06-11T09:32:59.000Z,83.4
2018-06-11T09:33:59.681Z,82.8
2018-06-11T09:35:00.360Z,82.4
2018-06-11T09:36:01.041Z,82.6
2018-06-11T09:37:01.719Z,81.7
2018-06-11T09:38:02.450Z,80.6
2018-06-11T09:39:03.129Z,81.3
2018-06-11T09:40:03.810Z,81.6
2018-06-11T09:41:04.488Z,80.6
2018-06-11T09:42:05.167Z,80.6
2018-06-11T09:43:05.847Z,79.0
2018-06-11T09:44:06.569Z,79.2
2018-06-11T09:45:07.289Z,80.0
2018-06-11T09:46:07.972Z,79.2
2018-06-11T09:47:08.663Z,79.8
2018-06-11T09:48:09.380Z,79.7
2018-06-11T09:49:10.114Z,80.0
2018-06-11T09:50:10.752Z,79.7
2018-06-11T09:51:11.434Z,79.7
2018-06-11T09:52:12.152Z,79.1
2018-06-11T09:53:12.844Z,79.2
2018-06-11T09:54:13.576Z,78.5
2018-06-11T09:55:14.258Z,79.4
2018-06-11T09:56:14.939Z,79.3
2018-06-11T09:57:15.631Z,79.2
2018-06-11T09:58:16.309Z,79.1
2018-06-11T09:59:16.989Z,79.4
2018-06-11T10:00:17.686Z,79.3
2018-06-11T10:01:18.400Z,79.1
2018-06-11T10:02:19.081Z,78.4
2018-06-11T10:03:19.759Z,78.2
2018-06-11T10:04:20.442Z,77.9
2018-06-11T10:05:21.120Z,77.6
2018-06-11T10:06:21.800Z,77.9
2018-06-11T10:07:22.483Z,78.1
2018-06-11T10:08:23.202Z,78.6
2018-06-11T10:09:23.887Z,78.4
2018-06-11T10:10:24.605Z,78.1
2018-06-11T10:11:25.286Z,77.3
2018-06-11T10:12:26.064Z,77.4
2018-06-11T10:13:26.648Z,77.2
2018-06-11T10:14:27.324Z,77.5
2018-06-11T10:15:28.004Z,77.0
2018-06-11T10:16:28.687Z,77.0
2018-06-11T10:17:29.363Z,77.6
2018-06-11T10:18:30.047Z,77.1
2018-06-11T10:19:30.724Z,77.3
2018-06-11T10:20:31.408Z,77.1
2018-06-11T10:21:32.084Z,76.9
2018-06-11T10:22:32.768Z,76.3
2018-06-11T10:23:33.446Z,76.0
2018-06-11T10:24:34.127Z,75.7
2018-06-11T10:25:34.846Z,75.8
2018-06-11T10:26:35.526Z,75.2
2018-06-11T10:27:36.207Z,74.8
2018-06-11T10:28:36.888Z,74.2
2018-06-11T10:29:37.568Z,73.9
2018-06-11T10:30:38.247Z,73.5
2018-06-11T10:31:38.929Z,73.4
2018-06-11T10:32:39.611Z,72.9
2018-06-11T10:33:40.290Z,73.8
2018-06-11T10:34:40.971Z,73.6
2018-06-11T10:35:41.656Z,73.7
2018-06-11T10:36:42.335Z,73.5
2018-06-11T10:37:43.017Z,72.8
2018-06-11T10:38:43.697Z,72.1
2018-06-11T10:39:44.376Z,71.4
2018-06-11T10:40:45.059Z,71.5
2018-06-11T10:41:45.739Z,70.6
2018-06-11T10:42:46.420Z,69.5
2018-06-11T10:43:47.101Z,69.6
2018-06-11T10:44:47.784Z,69.6
2018-06-11T10:45:48.467Z,68.5
2018-06-11T10:46:49.148Z,69.1
2018-06-11T10:47:49.828Z,69.1
2018-06-11T10:48:50.550Z,69.6
2018-06-11T10:49:51.231Z,69.4
2018-06-11T10:50:51.913Z,69.7
2018-06-11T10:51:52.594Z,69.6
2018-06-11T10:52:53.276Z,69.4
2018-06-11T10:53:53.959Z,69.5
2018-06-11T10:54:54.716Z,70.2
2018-06-11T10:55:55.401Z,69.5
2018-06-11T10:56:56.083Z,69.8
2018-06-11T10:57:56.854Z,69.1
2018-06-11T10:58:57.484Z,69.4
2018-06-11T10:59:58.166Z,69.6
2018-06-11T11:00:58.848Z,69.5
2018-06-11T11:01:59.529Z,69.7
2018-06-11T11:03:00.212Z,68.9
2018-06-11T11:04:00.894Z,69.5
2018-06-11T11:05:01.616Z,69.8
2018-06-11T11:06:02.298Z,69.5
2018-06-11T11:07:02.980Z,70.0
2018-06-11T11:08:03.661Z,69.9
2018-06-11T11:09:04.383Z,69.8
2018-06-11T11:10:05.064Z,69.8
2018-06-11T11:11:05.745Z,69.8
2018-06-11T11:12:06.427Z,70.2
2018-06-11T11:13:07.160Z,70.5
2018-06-11T11:14:07.793Z,70.7
2018-06-11T11:15:08.470Z,71.0
2018-06-11T11:16:09.153Z,71.4
2018-06-11T11:17:09.835Z,72.0
2018-06-11T11:18:10.515Z,71.1
2018-06-11T11:19:11.197Z,70.7
2018-06-11T11:20:11.880Z,70.7
2018-06-11T11:21:12.560Z,70.3
2018-06-11T11:22:13.242Z,70.6
2018-06-11T11:23:13.963Z,70.8
2018-06-11T11:24:14.700Z,70.7
2018-06-11T11:25:15.380Z,69.9
2018-06-11T11:26:16.061Z,69.8
2018-06-11T11:27:16.744Z,69.9
2018-06-11T11:28:17.425Z,69.8
2018-06-11T11:29:18.106Z,69.8
2018-06-11T11:30:18.793Z,69.4
2018-06-11T11:31:19.474Z,69.2
2018-06-11T11:32:20.158Z,69.0
2018-06-11T11:33:20.835Z,69.3
2018-06-11T11:34:21.516Z,68.9
2018-06-11T11:35:22.199Z,68.2
2018-06-11T11:36:22.882Z,68.4
2018-06-11T11:37:23.564Z,68.0
2018-06-11T11:38:24.247Z,67.5
2018-06-11T11:39:24.980Z,67.6
2018-06-11T11:40:25.661Z,67.4
2018-06-11T11:41:26.343Z,66.9
2018-06-11T11:42:27.027Z,66.6
2018-06-11T11:43:27.708Z,67.1
2018-06-11T11:44:28.401Z,67.0
2018-06-11T11:45:29.094Z,66.8
2018-06-11T11:46:29.770Z,67.2
2018-06-11T11:47:30.454Z,67.5
2018-06-11T11:48:31.139Z,67.6
2018-06-11T11:49:31.869Z,68.3
2018-06-11T11:50:32.605Z,68.3
2018-06-11T11:51:33.276Z,69.0
2018-06-11T11:52:33.955Z,68.3
2018-06-11T11:53:34.637Z,68.0
2018-06-11T11:54:35.318Z,68.1
2018-06-11T11:55:36.000Z,68.2
2018-06-11T11:56:36.680Z,68.1
2018-06-11T11:57:37.367Z,68.4
2018-06-11T11:58:38.043Z,68.9
2018-06-11T11:59:38.726Z,69.7
2018-06-11T12:00:39.404Z,69.2
2018-06-11T12:01:40.117Z,69.3
2018-06-11T12:02:40.772Z,69.4
2018-06-11T12:03:41.493Z,69.5
2018-06-11T12:04:42.177Z,69.1
2018-06-11T12:05:42.859Z,69.2
2018-06-11T12:06:43.541Z,69.6
2018-06-11T12:07:44.227Z,69.3
2018-06-11T12:08:44.966Z,68.7
2018-06-11T12:09:45.599Z,68.3
2018-06-11T12:10:46.279Z,68.4
2018-06-11T12:11:46.967Z,68.9
2018-06-11T12:12:47.663Z,68.9
2018-06-11T12:13:48.387Z,68.9
2018-06-11T12:14:49.027Z,68.7
2018-06-11T12:15:49.708Z,68.9
2018-06-11T12:16:50.389Z,68.8
2018-06-11T12:17:51.080Z,68.9
2018-06-11T12:18:51.759Z,68.0
2018-06-11T12:19:52.449Z,68.1
2018-06-11T12:20:53.129Z,67.7
2018-06-11T12:21:53.812Z,67.2
2018-06-11T12:22:54.500Z,67.2
2018-06-11T12:23:55.185Z,66.7
2018-06-11T12:24:55.863Z,66.4
2018-06-11T12:25:56.554Z,66.0
2018-06-11T12:26:57.228Z,65.3
2018-06-11T12:27:57.914Z,65.1
2018-06-11T12:28:58.595Z,65.0
2018-06-11T12:29:59.282Z,64.8
2018-06-11T12:30:59.972Z,64.3
2018-06-11T12:32:00.668Z,63.7
2018-06-11T12:33:01.337Z,63.1
2018-06-11T12:34:02.019Z,63.3
2018-06-11T12:35:02.703Z,62.9
2018-06-11T12:36:03.387Z,62.5
2018-06-11T12:37:04.071Z,62.6
2018-06-11T12:38:04.752Z,61.9
2018-06-11T12:39:05.436Z,61.5
2018-06-11T12:40:06.119Z,61.7
2018-06-11T12:41:06.804Z,61.2
2018-06-11T12:42:07.486Z,61.6
2018-06-11T12:43:08.169Z,61.2
2018-06-11T12:44:08.849Z,61.7
2018-06-11T12:45:09.539Z,61.0
2018-06-11T12:46:10.221Z,61.6
2018-06-11T12:47:10.903Z,61.5
2018-06-11T12:48:11.586Z,60.6
2018-06-11T12:49:12.271Z,60.7
2018-06-11T12:50:12.953Z,60.9
2018-06-11T12:51:13.638Z,60.7
2018-06-11T12:52:14.326Z,61.0
2018-06-11T12:53:15.010Z,61.0
2018-06-11T12:54:15.692Z,60.5
2018-06-11T12:55:16.427Z,60.1
2018-06-11T12:56:17.164Z,59.8
2018-06-11T12:57:17.828Z,59.4
2018-06-11T12:58:18.511Z,58.8
2018-06-11T12:59:19.194Z,58.3
2018-06-11T13:00:19.878Z,58.8
2018-06-11T13:01:20.601Z,58.4
2018-06-11T13:02:21.289Z,59.1
2018-06-11T13:03:21.967Z,60.1
2018-06-11T13:04:22.650Z,60.0
2018-06-11T13:05:23.376Z,60.8
2018-06-11T13:06:24.059Z,61.8
2018-06-11T13:07:24.742Z,61.8
2018-06-11T13:08:25.425Z,61.7
2018-06-11T13:09:26.148Z,62.0
2018-06-11T13:10:26.838Z,62.8
2018-06-11T13:11:27.557Z,63.1
2018-06-11T13:12:28.240Z,63.5
2018-06-11T13:13:28.959Z,63.7
2018-06-11T13:14:29.645Z,63.5
2018-06-11T13:15:30.330Z,63.7
2018-06-11T13:16:31.027Z,63.1
2018-06-11T13:17:31.707Z,64.2
2018-06-11T13:18:32.389Z,64.6
2018-06-11T13:19:33.073Z,64.6
2018-06-11T13:20:33.754Z,65.3
2018-06-11T13:21:34.438Z,65.6
2018-06-11T13:22:35.119Z,65.4
2018-06-11T13:23:35.802Z,65.2
2018-06-11T13:24:36.486Z,64.6
2018-06-11T13:25:37.191Z,64.8
2018-06-11T13:26:37.892Z,63.9
2018-06-11T13:27:38.580Z,63.7
2018-06-11T13:28:39.257Z,62.8